createdAt,value
2018-10-11T00:00:35.605Z,1003.18
2018-10-11T00:01:16.025Z,1003.16
2018-10-11T00:01:56.342Z,1003.17
2018-10-11T00:02:36.837Z,1003.16
2018-10-11T00:03:17.229Z,1003.12
2018-10-11T00:03:57.667Z,1003.14
2018-10-11T00:04:38.148Z,1003.16
2018-10-11T00:05:18.596Z,1003.14
2018-10-11T00:05:58.987Z,1003.12
2018-10-11T00:06:39.537Z,1003.12
2018-10-11T00:07:19.982Z,1003.12
2018-10-11T00:08:00.334Z,1003.17
2018-10-11T00:08:40.740Z,1003.11
2018-10-11T00:09:21.166Z,1003.17
2018-10-11T00:10:01.535Z,1003.17
2018-10-11T00:10:41.931Z,1003.12
2018-10-11T00:11:22.430Z,1003.15
2018-10-11T00:12:02.729Z,1003.14
2018-10-11T00:12:43.145Z,1003.13
2018-10-11T00:13:23.621Z,1003.13
2018-10-11T00:14:04.008Z,1003.12
2018-10-11T00:14:44.457Z,1003.13
2018-10-11T00:15:24.837Z,1003.08
2018-10-11T00:16:05.183Z,1003.07
2018-10-11T00:16:45.727Z,1003.07
2018-10-11T00:17:26.177Z,1003.11
2018-10-11T00:18:06.496Z,1003.13
2018-10-11T00:18:46.949Z,1003.08
2018-10-11T00:19:27.330Z,1003.09
2018-10-11T00:20:07.790Z,1003.13
2018-10-11T00:20:48.200Z,1003.07
2018-10-11T00:21:28.553Z,1003.09
2018-10-11T00:22:08.941Z,1003.11
2018-10-11T00:22:49.333Z,1003.08
2018-10-11T00:23:29.778Z,1003.09
2018-10-11T00:24:10.164Z,1003.09
2018-10-11T00:24:50.586Z,1003.12
2018-10-11T00:25:30.916Z,1003.1
2018-10-11T00:26:11.403Z,1003.11
2018-10-11T00:26:51.743Z,1003.08
2018-10-11T00:27:32.112Z,1003.09
2018-10-11T00:28:12.619Z,1003.1
2018-10-11T00:28:53.005Z,1003.08
2018-10-11T00:29:33.352Z,1003.03
2018-10-11T00:30:13.803Z,1003.08
2018-10-11T00:30:54.219Z,1003.08
2018-10-11T00:31:34.675Z,1003.07
2018-10-11T00:32:14.999Z,1003.11
2018-10-11T00:32:55.380Z,1003.06
2018-10-11T00:33:35.796Z,1003.08
2018-10-11T00:34:16.180Z,1003.1
2018-10-11T00:34:56.571Z,1003.09
2018-10-11T00:35:36.899Z,1003.13
2018-10-11T00:36:17.385Z,1003.15
2018-10-11T00:36:57.725Z,1003.12
2018-10-11T00:37:38.176Z,1003.13
2018-10-11T00:38:18.743Z,1003.17
2018-10-11T00:38:59.125Z,1003.17
2018-10-11T00:39:39.493Z,1003.13
2018-10-11T00:40:19.906Z,1003.15
2018-10-11T00:41:00.276Z,1003.14
2018-10-11T00:41:40.703Z,1003.13
2018-10-11T00:42:21.112Z,1003.14
2018-10-11T00:43:01.492Z,1003.14
2018-10-11T00:43:41.935Z,1003.12
2018-10-11T00:44:22.328Z,1003.14
2018-10-11T00:45:02.706Z,1003.08
2018-10-11T00:45:43.140Z,1003.08
2018-10-11T00:46:23.566Z,1003.03
2018-10-11T00:47:03.939Z,1003.06
2018-10-11T00:47:44.310Z,1003.04
2018-10-11T00:48:24.716Z,1003
2018-10-11T00:49:05.177Z,1002.97
2018-10-11T00:49:45.570Z,1003.04
2018-10-11T00:50:26.026Z,1003.06
2018-10-11T00:51:06.430Z,1003.05
2018-10-11T00:51:46.843Z,1003.08
2018-10-11T00:52:27.235Z,1003.07
2018-10-11T00:53:07.658Z,1003.06
2018-10-11T00:53:48.116Z,1003.08
2018-10-11T00:54:28.484Z,1003.1
2018-10-11T00:55:08.819Z,1003.07
2018-10-11T00:55:49.270Z,1003.08
2018-10-11T00:56:29.637Z,1003.05
2018-10-11T00:57:10.049Z,1003.07
2018-10-11T00:57:50.480Z,1003.04
2018-10-11T00:58:31.031Z,1003.02
2018-10-11T00:59:11.454Z,1003.03
2018-10-11T00:59:51.836Z,1003.02
2018-10-11T01:00:32.211Z,1003.02
2018-10-11T01:01:12.565Z,1003.02
2018-10-11T01:01:53.013Z,1003
2018-10-11T01:02:33.407Z,1002.99
2018-10-11T01:03:13.850Z,1002.99
2018-10-11T01:03:54.229Z,1003
2018-10-11T01:04:34.591Z,1003.01
2018-10-11T01:05:15.073Z,1002.99
2018-10-11T01:05:55.493Z,1003
2018-10-11T01:06:35.933Z,1002.99
2018-10-11T01:07:16.280Z,1002.98
2018-10-11T01:07:56.692Z,1002.94
2018-10-11T01:08:37.086Z,1002.93
2018-10-11T01:09:17.478Z,1002.93
2018-10-11T01:09:57.897Z,1002.88
2018-10-11T01:10:38.309Z,1002.88
2018-10-11T01:11:18.688Z,1002.89
2018-10-11T01:11:59.074Z,1002.87
2018-10-11T01:12:39.451Z,1002.85
2018-10-11T01:13:19.794Z,1002.83
2018-10-11T01:14:00.304Z,1002.86
2018-10-11T01:14:40.652Z,1002.85
2018-10-11T01:15:21.117Z,1002.84
2018-10-11T01:16:01.483Z,1002.87
2018-10-11T01:16:42.011Z,1002.86
2018-10-11T01:17:22.450Z,1002.88
2018-10-11T01:18:02.819Z,1002.89
2018-10-11T01:18:43.290Z,1002.9
2018-10-11T01:19:23.750Z,1002.87
2018-10-11T01:20:04.111Z,1002.85
2018-10-11T01:20:44.502Z,1002.88
2018-10-11T01:21:24.956Z,1002.83
2018-10-11T01:22:05.409Z,1002.86
2018-10-11T01:22:45.819Z,1002.83
2018-10-11T01:23:26.265Z,1002.84
2018-10-11T01:24:06.648Z,1002.85
2018-10-11T01:24:47.064Z,1002.84
2018-10-11T01:25:27.446Z,1002.83
2018-10-11T01:26:07.763Z,1002.85
2018-10-11T01:26:48.250Z,1002.82
2018-10-11T01:27:28.683Z,1002.8
2018-10-11T01:28:09.020Z,1002.84
2018-10-11T01:28:49.445Z,1002.83
2018-10-11T01:29:29.917Z,1002.81
2018-10-11T01:30:10.289Z,1002.82
2018-10-11T01:30:50.667Z,1002.82
2018-10-11T01:31:31.051Z,1002.81
2018-10-11T01:32:11.436Z,1002.79
2018-10-11T01:32:51.884Z,1002.79
2018-10-11T01:33:32.376Z,1002.8
2018-10-11T01:34:12.760Z,1002.77
2018-10-11T01:34:53.103Z,1002.78
2018-10-11T01:35:33.475Z,1002.8
2018-10-11T01:36:13.854Z,1002.79
2018-10-11T01:36:54.366Z,1002.82
2018-10-11T01:37:34.704Z,1002.77
2018-10-11T01:38:15.168Z,1002.8
2018-10-11T01:38:55.538Z,1002.76
2018-10-11T01:39:35.970Z,1002.79
2018-10-11T01:40:16.375Z,1002.81
2018-10-11T01:40:56.748Z,1002.8
2018-10-11T01:41:37.140Z,1002.79
2018-10-11T01:42:17.510Z,1002.79
2018-10-11T01:42:58.067Z,1002.75
2018-10-11T01:43:38.359Z,1002.75
2018-10-11T01:44:18.679Z,1002.72
2018-10-11T01:44:59.134Z,1002.7
2018-10-11T01:45:39.498Z,1002.71
2018-10-11T01:46:19.983Z,1002.68
2018-10-11T01:47:00.322Z,1002.68
2018-10-11T01:47:40.678Z,1002.64
2018-10-11T01:48:21.081Z,1002.69
2018-10-11T01:49:01.519Z,1002.69
2018-10-11T01:49:41.928Z,1002.66
2018-10-11T01:50:22.305Z,1002.69
2018-10-11T01:51:02.731Z,1002.66
2018-10-11T01:51:43.109Z,1002.65
2018-10-11T01:52:23.495Z,1002.62
2018-10-11T01:53:03.937Z,1002.59
2018-10-11T01:53:44.264Z,1002.58
2018-10-11T01:54:24.690Z,1002.59
2018-10-11T01:55:05.198Z,1002.59
2018-10-11T01:55:45.572Z,1002.59
2018-10-11T01:56:25.979Z,1002.61
2018-10-11T01:57:06.354Z,1002.59
2018-10-11T01:57:46.756Z,1002.56
2018-10-11T01:58:27.169Z,1002.54
2018-10-11T01:59:07.513Z,1002.55
2018-10-11T01:59:47.950Z,1002.58
2018-10-11T02:00:28.341Z,1002.54
2018-10-11T02:01:08.737Z,1002.51
2018-10-11T02:01:49.218Z,1002.52
2018-10-11T02:02:29.702Z,1002.54
2018-10-11T02:03:10.101Z,1002.56
2018-10-11T02:03:50.505Z,1002.47
2018-10-11T02:04:30.939Z,1002.47
2018-10-11T02:05:11.395Z,1002.52
2018-10-11T02:05:51.866Z,1002.48
2018-10-11T02:06:32.228Z,1002.46
2018-10-11T02:07:12.570Z,1002.48
2018-10-11T02:07:53.461Z,1002.47
2018-10-11T02:08:33.434Z,1002.48
2018-10-11T02:09:13.787Z,1002.43
2018-10-11T02:09:54.323Z,1002.47
2018-10-11T02:10:34.704Z,1002.47
2018-10-11T02:11:15.008Z,1002.44
2018-10-11T02:11:55.472Z,1002.42
2018-10-11T02:12:35.848Z,1002.45
2018-10-11T02:13:16.266Z,1002.44
2018-10-11T02:13:56.677Z,1002.44
2018-10-11T02:14:37.138Z,1002.43
2018-10-11T02:15:17.597Z,1002.46
2018-10-11T02:15:57.991Z,1002.44
2018-10-11T02:16:38.364Z,1002.46
2018-10-11T02:17:18.859Z,1002.44
2018-10-11T02:17:59.168Z,1002.44
2018-10-11T02:18:39.613Z,1002.44
2018-10-11T02:19:20.025Z,1002.46
2018-10-11T02:20:00.406Z,1002.41
2018-10-11T02:20:40.896Z,1002.43
2018-10-11T02:21:21.232Z,1002.39
2018-10-11T02:22:01.726Z,1002.44
2018-10-11T02:22:42.068Z,1002.34
2018-10-11T02:23:22.536Z,1002.3
2018-10-11T02:24:02.877Z,1002.31
2018-10-11T02:24:43.409Z,1002.31
2018-10-11T02:25:23.711Z,1002.29
2018-10-11T02:26:04.108Z,1002.29
2018-10-11T02:26:44.436Z,1002.24
2018-10-11T02:27:24.983Z,1002.23
2018-10-11T02:28:05.392Z,1002.26
2018-10-11T02:28:45.760Z,1002.23
2018-10-11T02:29:26.151Z,1002.22
2018-10-11T02:30:06.519Z,1002.22
2018-10-11T02:30:46.952Z,1002.28
2018-10-11T02:31:27.397Z,1002.23
2018-10-11T02:32:07.813Z,1002.25
2018-10-11T02:32:48.264Z,1002.24
2018-10-11T02:33:28.723Z,1002.28
2018-10-11T02:34:09.601Z,1002.27
2018-10-11T02:34:50.152Z,1002.33
2018-10-11T02:35:30.504Z,1002.31
2018-10-11T02:36:10.875Z,1002.3
2018-10-11T02:36:51.327Z,1002.33
2018-10-11T02:37:31.726Z,1002.27
2018-10-11T02:38:12.159Z,1002.27
2018-10-11T02:38:52.569Z,1002.33
2018-10-11T02:39:32.989Z,1002.29
2018-10-11T02:40:13.432Z,1002.31
2018-10-11T02:40:53.821Z,1002.36
2018-10-11T02:41:34.292Z,1002.37
2018-10-11T02:42:14.708Z,1002.38
2018-10-11T02:42:55.097Z,1002.39
2018-10-11T02:43:35.594Z,1002.4
2018-10-11T02:44:16.018Z,1002.42
2018-10-11T02:44:56.407Z,1002.42
2018-10-11T02:45:36.861Z,1002.39
2018-10-11T02:46:17.348Z,1002.4
2018-10-11T02:46:57.784Z,1002.35
2018-10-11T02:47:38.161Z,1002.31
2018-10-11T02:48:18.624Z,1002.3
2018-10-11T02:48:59.035Z,1002.33
2018-10-11T02:49:39.525Z,1002.31
2018-10-11T02:50:19.882Z,1002.32
2018-10-11T02:51:00.391Z,1002.29
2018-10-11T02:51:40.789Z,1002.29
2018-10-11T02:52:21.268Z,1002.25
2018-10-11T02:53:01.702Z,1002.32
2018-10-11T02:53:42.127Z,1002.3
2018-10-11T02:54:22.471Z,1002.32
2018-10-11T02:55:03.059Z,1002.3
2018-10-11T02:55:43.422Z,1002.28
2018-10-11T02:56:23.725Z,1002.29
2018-10-11T02:57:04.167Z,1002.28
2018-10-11T02:57:44.561Z,1002.27
2018-10-11T02:58:25.002Z,1002.32
2018-10-11T02:59:05.413Z,1002.28
2018-10-11T02:59:45.821Z,1002.26
2018-10-11T03:00:26.348Z,1002.23
2018-10-11T03:01:06.594Z,1002.2
2018-10-11T03:01:47.065Z,1002.2
2018-10-11T03:02:27.427Z,1002.24
2018-10-11T03:03:07.880Z,1002.21
2018-10-11T03:03:48.405Z,1002.22
2018-10-11T03:04:28.817Z,1002.24
2018-10-11T03:05:09.222Z,1002.24
2018-10-11T03:05:49.660Z,1002.28
2018-10-11T03:06:30.021Z,1002.28
2018-10-11T03:07:10.457Z,1002.3
2018-10-11T03:07:50.853Z,1002.31
2018-10-11T03:08:31.222Z,1002.32
2018-10-11T03:09:11.673Z,1002.35
2018-10-11T03:09:52.122Z,1002.31
2018-10-11T03:10:32.730Z,1002.3
2018-10-11T03:11:13.034Z,1002.29
2018-10-11T03:11:53.556Z,1002.27
2018-10-11T03:12:33.947Z,1002.3
2018-10-11T03:13:14.432Z,1002.29
2018-10-11T03:13:54.811Z,1002.31
2018-10-11T03:14:35.250Z,1002.3
2018-10-11T03:15:15.597Z,1002.31
2018-10-11T03:15:56.058Z,1002.33
2018-10-11T03:16:36.350Z,1002.35
2018-10-11T03:17:16.881Z,1002.37
2018-10-11T03:17:57.467Z,1002.43
2018-10-11T03:18:37.928Z,1002.37
2018-10-11T03:19:18.272Z,1002.38
2018-10-11T03:19:58.730Z,1002.35
2018-10-11T03:20:39.281Z,1002.32
2018-10-11T03:21:19.791Z,1002.36
2018-10-11T03:22:00.142Z,1002.35
2018-10-11T03:22:40.572Z,1002.38
2018-10-11T03:23:21.046Z,1002.41
2018-10-11T03:24:01.423Z,1002.4
2018-10-11T03:24:41.820Z,1002.41
2018-10-11T03:25:22.288Z,1002.42
2018-10-11T03:26:02.690Z,1002.45
2018-10-11T03:26:43.195Z,1002.43
2018-10-11T03:27:23.635Z,1002.43
2018-10-11T03:28:04.048Z,1002.43
2018-10-11T03:28:44.822Z,1002.41
2018-10-11T03:29:25.185Z,1002.41
2018-10-11T03:30:05.666Z,1002.41
2018-10-11T03:30:46.037Z,1002.37
2018-10-11T03:31:26.470Z,1002.4
2018-10-11T03:32:06.846Z,1002.39
2018-10-11T03:32:47.176Z,1002.39
2018-10-11T03:33:27.659Z,1002.38
2018-10-11T03:34:08.001Z,1002.43
2018-10-11T03:34:48.606Z,1002.41
2018-10-11T03:35:29.070Z,1002.42
2018-10-11T03:36:09.402Z,1002.38
2018-10-11T03:36:49.812Z,1002.4
2018-10-11T03:37:30.327Z,1002.33
2018-10-11T03:38:10.765Z,1002.37
2018-10-11T03:38:51.105Z,1002.35
2018-10-11T03:39:31.609Z,1002.33
2018-10-11T03:40:12.073Z,1002.36
2018-10-11T03:40:52.607Z,1002.37
2018-10-11T03:41:33.990Z,1002.41
2018-10-11T03:42:14.047Z,1002.41
2018-10-11T03:42:54.429Z,1002.39
2018-10-11T03:43:34.775Z,1002.39
2018-10-11T03:44:15.313Z,1002.42
2018-10-11T03:44:55.772Z,1002.42
2018-10-11T03:45:36.186Z,1002.44
2018-10-11T03:46:16.511Z,1002.49
2018-10-11T03:46:56.878Z,1002.48
2018-10-11T03:47:37.368Z,1002.5
2018-10-11T03:48:17.708Z,1002.53
2018-10-11T03:48:58.129Z,1002.62
2018-10-11T03:49:38.523Z,1002.6
2018-10-11T03:50:18.933Z,1002.58
2018-10-11T03:50:59.307Z,1002.6
2018-10-11T03:51:39.752Z,1002.64
2018-10-11T03:52:20.181Z,1002.62
2018-10-11T03:53:00.591Z,1002.65
2018-10-11T03:53:40.915Z,1002.62
2018-10-11T03:54:21.333Z,1002.57
2018-10-11T03:55:01.729Z,1002.59
2018-10-11T03:55:42.145Z,1002.6
2018-10-11T03:56:22.495Z,1002.59
2018-10-11T03:57:02.922Z,1002.61
2018-10-11T03:57:43.329Z,1002.57
2018-10-11T03:58:23.802Z,1002.58
2018-10-11T03:59:04.164Z,1002.58
2018-10-11T03:59:44.545Z,1002.56
2018-10-11T04:00:25.033Z,1002.53
2018-10-11T04:01:05.402Z,1002.51
2018-10-11T04:01:45.830Z,1002.49
2018-10-11T04:02:26.165Z,1002.46
2018-10-11T04:03:06.550Z,1002.44
2018-10-11T04:03:46.984Z,1002.46
2018-10-11T04:04:27.384Z,1002.4
2018-10-11T04:05:07.768Z,1002.43
2018-10-11T04:05:48.157Z,1002.36
2018-10-11T04:06:28.573Z,1002.38
2018-10-11T04:07:08.978Z,1002.4
2018-10-11T04:07:49.411Z,1002.37
2018-10-11T04:08:29.878Z,1002.36
2018-10-11T04:09:10.306Z,1002.38
2018-10-11T04:09:50.683Z,1002.38
2018-10-11T04:10:31.083Z,1002.37
2018-10-11T04:11:11.515Z,1002.39
2018-10-11T04:11:51.914Z,1002.38
2018-10-11T04:12:32.292Z,1002.35
2018-10-11T04:13:12.766Z,1002.32
2018-10-11T04:13:53.023Z,1002.33
2018-10-11T04:14:33.521Z,1002.33
2018-10-11T04:15:13.947Z,1002.32
2018-10-11T04:15:54.381Z,1002.3
2018-10-11T04:16:34.775Z,1002.33
2018-10-11T04:17:15.346Z,1002.32
2018-10-11T04:17:55.692Z,1002.32
2018-10-11T04:18:36.045Z,1002.33
2018-10-11T04:19:16.518Z,1002.33
2018-10-11T04:19:57.020Z,1002.3
2018-10-11T04:20:37.404Z,1002.31
2018-10-11T04:21:17.812Z,1002.31
2018-10-11T04:21:58.195Z,1002.33
2018-10-11T04:22:38.664Z,1002.33
2018-10-11T04:23:19.050Z,1002.31
2018-10-11T04:23:59.780Z,1002.27
2018-10-11T04:24:40.156Z,1002.26
2018-10-11T04:25:20.613Z,1002.26
2018-10-11T04:26:01.139Z,1002.26
2018-10-11T04:26:41.616Z,1002.27
2018-10-11T04:27:22.036Z,1002.26
2018-10-11T05:06:45.148Z,1002.58
2018-10-11T05:07:25.398Z,1002.62
2018-10-11T05:09:21.035Z,1002.72
2018-10-11T05:10:04.185Z,1002.76
2018-10-11T05:10:44.599Z,1002.73
2018-10-11T05:11:25.002Z,1002.75
2018-10-11T05:12:05.382Z,1002.74
2018-10-11T05:12:45.811Z,1002.74
2018-10-11T05:13:26.210Z,1002.74
2018-10-11T05:14:06.636Z,1002.72
2018-10-11T05:14:47.049Z,1002.71
2018-10-11T05:15:27.445Z,1002.74
2018-10-11T05:16:07.909Z,1002.76
2018-10-11T05:20:09.328Z,1002.94
2018-10-11T05:25:07.991Z,1002.81
2018-10-11T05:25:48.890Z,1002.8
2018-10-11T05:26:29.246Z,1002.8
2018-10-11T05:27:09.890Z,1002.79
2018-10-11T05:27:50.310Z,1002.8
2018-10-11T05:28:30.829Z,1002.75
2018-10-11T05:34:03.563Z,1002.78
2018-10-11T05:34:43.557Z,1002.75
2018-10-11T05:35:23.949Z,1002.78
2018-10-11T05:36:04.430Z,1002.73
2018-10-11T05:36:44.945Z,1002.77
2018-10-11T05:37:25.389Z,1002.72
2018-10-11T05:38:05.811Z,1002.71
2018-10-11T05:38:46.834Z,1002.7
2018-10-11T05:39:27.273Z,1002.71
2018-10-11T05:40:07.659Z,1002.72
2018-10-11T05:45:25.291Z,1002.7
2018-10-11T05:46:27.194Z,1002.72
2018-10-11T05:49:18.852Z,1002.76
2018-10-11T05:50:11.447Z,1002.8
2018-10-11T05:51:03.987Z,1002.82
2018-10-11T05:51:57.589Z,1002.81
2018-10-11T05:53:59.649Z,1002.8
2018-10-11T05:54:39.986Z,1002.84
2018-10-11T05:57:00.594Z,1002.84
2018-10-11T05:57:41.446Z,1002.86
2018-10-11T05:58:21.919Z,1002.9
2018-10-11T05:59:02.460Z,1002.92
2018-10-11T05:59:42.918Z,1003
2018-10-11T06:00:23.358Z,1002.97
2018-10-11T06:01:03.794Z,1003
2018-10-11T06:01:44.368Z,1003.05
2018-10-11T06:02:24.942Z,1003.09
2018-10-11T06:03:05.429Z,1003.09
2018-10-11T06:03:45.948Z,1003.05
2018-10-11T06:04:26.459Z,1003.1
2018-10-11T06:05:06.974Z,1003.13
2018-10-11T06:05:47.419Z,1003.12
2018-10-11T06:06:27.988Z,1003.16
2018-10-11T06:07:08.659Z,1003.17
2018-10-11T06:07:49.088Z,1003.18
2018-10-11T06:08:29.599Z,1003.17
2018-10-11T06:09:10.187Z,1003.1
2018-10-11T06:09:50.786Z,1003.11
2018-10-11T06:10:31.161Z,1003.11
2018-10-11T06:12:32.694Z,1003.11
2018-10-11T06:13:25.201Z,1003.11
2018-10-11T06:14:21.552Z,1003.02
2018-10-11T06:15:13.711Z,1003.12
2018-10-11T06:16:06.157Z,1003.09
2018-10-11T06:16:56.477Z,1003.08
2018-10-11T06:20:34.388Z,1003.17
2018-10-11T06:21:13.713Z,1003.15
2018-10-11T06:29:43.639Z,1003.39
2018-10-11T06:30:35.943Z,1003.41
2018-10-11T06:31:28.683Z,1003.44
2018-10-11T06:32:21.108Z,1003.45
2018-10-11T06:33:15.011Z,1003.47
2018-10-11T06:34:08.267Z,1003.45
2018-10-11T06:35:01.051Z,1003.47
2018-10-11T06:35:55.970Z,1003.43
2018-10-11T06:36:49.127Z,1003.48
2018-10-11T06:37:42.011Z,1003.44
2018-10-11T06:38:34.583Z,1003.48
2018-10-11T06:39:27.887Z,1003.5
2018-10-11T06:40:22.894Z,1003.55
2018-10-11T06:42:56.980Z,1003.65
2018-10-11T06:43:49.996Z,1003.63
2018-10-11T06:44:42.248Z,1003.64
2018-10-11T06:45:35.093Z,1003.68
2018-10-11T06:46:28.026Z,1003.71
2018-10-11T06:47:20.445Z,1003.7
2018-10-11T06:48:12.590Z,1003.7
2018-10-11T06:49:04.845Z,1003.71
2018-10-11T06:49:57.850Z,1003.68
2018-10-11T06:50:49.903Z,1003.7
2018-10-11T06:51:47.375Z,1003.64
2018-10-11T06:52:40.565Z,1003.61
2018-10-11T06:53:38.704Z,1003.6
2018-10-11T06:56:19.809Z,1003.71
2018-10-11T06:57:00.090Z,1003.76
2018-10-11T06:57:41.160Z,1003.78
2018-10-11T06:58:21.030Z,1003.81
2018-10-11T06:59:01.426Z,1003.79
2018-10-11T06:59:41.915Z,1003.84
2018-10-11T07:02:05.649Z,1003.87
2018-10-11T07:03:04.758Z,1003.84
2018-10-11T07:03:57.259Z,1003.9
2018-10-11T07:04:50.616Z,1003.89
2018-10-11T07:05:45.974Z,1003.91
2018-10-11T07:06:40.614Z,1003.88
2018-10-11T07:07:34.043Z,1003.88
2018-10-11T07:08:27.092Z,1003.86
2018-10-11T07:09:19.745Z,1003.89
2018-10-11T07:10:12.146Z,1003.85
2018-10-11T07:11:05.194Z,1003.85
2018-10-11T07:11:56.916Z,1003.82
2018-10-11T07:12:48.998Z,1003.89
2018-10-11T07:13:41.273Z,1003.89
2018-10-11T07:14:33.673Z,1003.86
2018-10-11T07:15:27.058Z,1003.9
2018-10-11T07:17:38.216Z,1004.04
2018-10-11T07:18:30.682Z,1003.95
2018-10-11T07:19:24.663Z,1004
2018-10-11T07:20:17.074Z,1003.94
2018-10-11T07:21:10.057Z,1003.98
2018-10-11T07:22:02.443Z,1004.01
2018-10-11T07:22:54.887Z,1003.95
2018-10-11T07:23:48.444Z,1004.02
2018-10-11T07:24:43.078Z,1003.96
2018-10-11T07:25:35.404Z,1003.95
2018-10-11T07:26:27.961Z,1003.96
2018-10-11T07:27:20.842Z,1003.97
2018-10-11T07:28:14.162Z,1003.92
2018-10-11T07:29:06.811Z,1003.93
2018-10-11T07:31:41.302Z,1003.97
2018-10-11T07:32:33.830Z,1003.94
2018-10-11T07:33:26.355Z,1003.91
2018-10-11T07:34:18.782Z,1003.95
2018-10-11T07:35:12.425Z,1003.95
2018-10-11T07:36:06.357Z,1003.97
2018-10-11T07:37:01.691Z,1003.98
2018-10-11T07:37:55.618Z,1004
2018-10-11T07:38:51.846Z,1004
2018-10-11T07:39:45.505Z,1004.04
2018-10-11T07:41:48.355Z,1003.97
2018-10-11T07:42:44.239Z,1004.01
2018-10-11T07:43:37.913Z,1004.03
2018-10-11T07:44:33.222Z,1003.98
2018-10-11T07:45:25.185Z,1003.99
2018-10-11T07:46:20.279Z,1003.98
2018-10-11T07:47:14.086Z,1004.01
2018-10-11T07:48:09.656Z,1004.06
2018-10-11T07:49:02.010Z,1004
2018-10-11T07:49:58.464Z,1003.97
2018-10-11T07:51:00.510Z,1004.03
2018-10-11T07:51:53.390Z,1004.04
2018-10-11T07:52:47.435Z,1004.06
2018-10-11T07:53:40.656Z,1004.1
2018-10-11T07:54:32.893Z,1004.07
2018-10-11T07:55:25.055Z,1004.03
2018-10-11T07:56:25.554Z,1004.12
2018-10-11T07:57:19.198Z,1004.04
2018-10-11T07:58:10.621Z,1004.03
2018-10-11T07:58:52.747Z,1004.03
2018-10-11T07:59:37.070Z,1004.05
2018-10-11T08:00:18.820Z,1003.99
2018-10-11T08:01:01.290Z,1004.01
2018-10-11T08:01:45.072Z,1003.99
2018-10-11T08:04:17.089Z,1003.94
2018-10-11T08:05:12.814Z,1003.96
2018-10-11T08:06:11.806Z,1003.93
2018-10-11T08:07:06.300Z,1004.01
2018-10-11T08:07:59.757Z,1003.93
2018-10-11T08:08:57.700Z,1003.95
2018-10-11T08:09:53.575Z,1003.97
2018-10-11T08:10:47.828Z,1003.92
2018-10-11T08:11:40.514Z,1003.9
2018-10-11T08:12:35.049Z,1003.95
2018-10-11T08:13:29.302Z,1003.94
2018-10-11T08:14:23.266Z,1003.95
2018-10-11T08:15:17.700Z,1003.93
2018-10-11T08:16:24.359Z,1003.9
2018-10-11T08:17:20.744Z,1003.94
2018-10-11T08:18:22.907Z,1004
2018-10-11T08:19:19.402Z,1003.99
2018-10-11T08:20:13.758Z,1003.99
2018-10-11T08:21:07.970Z,1003.97
2018-10-11T08:22:03.592Z,1004
2018-10-11T08:23:00.525Z,1004.01
2018-10-11T08:23:56.345Z,1003.98
2018-10-11T08:24:52.047Z,1003.98
2018-10-11T08:25:44.743Z,1003.97
2018-10-11T08:26:37.187Z,1004
2018-10-11T08:27:32.324Z,1004
2018-10-11T08:29:53.459Z,1004
2018-10-11T08:30:34.065Z,1003.97
2018-10-11T08:31:19.596Z,1004.03
2018-10-11T08:32:01.149Z,1004
2018-10-11T08:32:42.100Z,1003.99
2018-10-11T08:33:23.138Z,1004
2018-10-11T08:40:46.843Z,1004.05
2018-10-11T08:44:08.422Z,1004.02
2018-10-11T08:49:03.993Z,1004
2018-10-11T09:11:42.538Z,1004.18
2018-10-11T09:16:55.602Z,1004.14
2018-10-11T09:18:49.350Z,1004.13
2018-10-11T09:19:29.845Z,1004.13
2018-10-11T09:20:10.303Z,1004.09
2018-10-11T09:20:50.816Z,1004.12
2018-10-11T09:21:31.719Z,1004.13
2018-10-11T09:22:11.954Z,1004.13
2018-10-11T09:22:52.966Z,1004.12
2018-10-11T09:23:33.618Z,1004.13
2018-10-11T09:24:14.022Z,1004.18
2018-10-11T09:24:54.531Z,1004.13
2018-10-11T09:25:34.970Z,1004.13
2018-10-11T09:26:16.187Z,1004.1
2018-10-11T09:26:56.599Z,1004.06
2018-10-11T09:27:37.096Z,1004.05
2018-10-11T09:28:17.425Z,1004.06
2018-10-11T09:28:57.864Z,1004.03
2018-10-11T09:29:38.278Z,1004
2018-10-11T09:30:18.703Z,1004.04
2018-10-11T09:30:59.147Z,1004.03
2018-10-11T09:31:39.636Z,1004.05
2018-10-11T09:32:20.071Z,1004.05
2018-10-11T09:33:00.531Z,1004.08
2018-10-11T09:33:40.935Z,1004.09
2018-10-11T09:34:21.833Z,1004.08
2018-10-11T09:35:02.181Z,1004.04
2018-10-11T09:35:42.736Z,1004.1
2018-10-11T09:36:23.268Z,1004.1
2018-10-11T09:37:03.947Z,1004.09
2018-10-11T09:37:44.756Z,1004.04
2018-10-11T09:38:26.249Z,1004.07
2018-10-11T09:39:08.015Z,1004.13
2018-10-11T09:39:48.580Z,1004.08
2018-10-11T09:40:29.256Z,1004.11
2018-10-11T09:41:09.642Z,1004.04
2018-10-11T09:41:50.157Z,1004.07
2018-10-11T09:42:30.901Z,1004.06
2018-10-11T09:43:11.737Z,1004.07
2018-10-11T09:43:52.562Z,1004.07
2018-10-11T09:44:32.965Z,1004.02
2018-10-11T09:45:14.405Z,1004.06
2018-10-11T09:45:55.069Z,1003.98
2018-10-11T09:46:35.637Z,1003.99
2018-10-11T09:47:16.082Z,1004.01
2018-10-11T09:49:36.815Z,1003.93
2018-10-11T09:50:33.283Z,1003.97
2018-10-11T09:51:16.855Z,1003.95
2018-10-11T09:51:57.281Z,1003.93
2018-10-11T09:52:37.722Z,1003.95
2018-10-11T09:53:18.233Z,1003.99
2018-10-11T09:55:34.381Z,1003.98
2018-10-11T09:56:16.471Z,1004
2018-10-11T09:56:57.934Z,1003.94
2018-10-11T09:57:38.637Z,1003.96
2018-10-11T09:58:19.114Z,1003.92
2018-10-11T09:59:00.157Z,1003.96
2018-10-11T09:59:41.042Z,1003.91
2018-10-11T10:00:23.023Z,1003.92
2018-10-11T10:01:06.133Z,1003.91
2018-10-11T10:01:53.487Z,1003.89
2018-10-11T10:02:38.150Z,1003.9
2018-10-11T10:03:31.218Z,1003.88
2018-10-11T10:04:16.363Z,1003.89
2018-10-11T10:04:57.295Z,1003.91
2018-10-11T10:05:40.515Z,1003.88
2018-10-11T10:07:08.150Z,1003.9
2018-10-11T10:07:49.469Z,1003.88
2018-10-11T10:08:29.927Z,1003.87
2018-10-11T10:09:10.917Z,1003.87
2018-10-11T10:10:13.715Z,1003.88
2018-10-11T10:10:54.259Z,1003.86
2018-10-11T10:11:36.146Z,1003.85
2018-10-11T10:12:18.388Z,1003.87
2018-10-11T10:13:02.542Z,1003.9
2018-10-11T10:13:50.038Z,1003.9
2018-10-11T10:17:44.951Z,1003.94
2018-10-11T10:20:43.809Z,1003.97
2018-10-11T11:26:26.427Z,1003.53
2018-10-11T11:27:06.880Z,1003.46
2018-10-11T11:27:47.372Z,1003.47
2018-10-11T11:29:12.098Z,1003.45
2018-10-11T11:29:52.832Z,1003.45
2018-10-11T11:30:33.378Z,1003.47
2018-10-11T11:31:14.759Z,1003.46
2018-10-11T11:31:56.601Z,1003.45
2018-10-11T11:32:38.111Z,1003.42
2018-10-11T11:33:18.875Z,1003.4
2018-10-11T11:34:01.562Z,1003.47
2018-10-11T11:40:29.113Z,1003.46
2018-10-11T11:45:25.388Z,1003.49
2018-10-11T11:49:10.066Z,1003.42
2018-10-11T11:49:49.724Z,1003.45
2018-10-11T11:50:30.229Z,1003.44
2018-10-11T11:51:11.554Z,1003.43
2018-10-11T11:51:52.000Z,1003.44
2018-10-11T11:52:34.499Z,1003.42
2018-10-11T11:53:15.133Z,1003.39
2018-10-11T11:53:56.087Z,1003.47
2018-10-11T11:54:36.580Z,1003.42
2018-10-11T11:55:17.062Z,1003.38
2018-10-11T11:55:57.769Z,1003.39
2018-10-11T11:56:38.346Z,1003.36
2018-10-11T11:57:18.925Z,1003.38
2018-10-11T11:58:00.347Z,1003.37
2018-10-11T11:58:41.331Z,1003.37
2018-10-11T11:59:22.869Z,1003.35
2018-10-11T12:00:03.424Z,1003.33
2018-10-11T12:00:44.375Z,1003.35
2018-10-11T12:01:24.643Z,1003.29
2018-10-11T12:02:05.142Z,1003.3
2018-10-11T12:02:45.792Z,1003.31
2018-10-11T12:03:28.142Z,1003.35
2018-10-11T12:04:08.672Z,1003.37
2018-10-11T12:04:49.657Z,1003.39
2018-10-11T12:05:30.517Z,1003.37
2018-10-11T12:06:12.337Z,1003.33
2018-10-11T12:06:53.692Z,1003.36
2018-10-11T12:07:33.645Z,1003.37
2018-10-11T12:08:14.419Z,1003.36
2018-10-11T12:08:55.007Z,1003.39
2018-10-11T12:10:11.910Z,1003.42
2018-10-11T12:10:53.018Z,1003.44
2018-10-11T12:11:33.852Z,1003.42
2018-10-11T12:12:14.555Z,1003.03
2018-10-11T12:12:58.188Z,1003.39
2018-10-11T12:13:39.322Z,1003.44
2018-10-11T12:14:19.651Z,1003.35
2018-10-11T12:15:00.335Z,1003.41
2018-10-11T12:15:42.348Z,1003.33
2018-10-11T12:16:23.150Z,1003.35
2018-10-11T12:17:07.055Z,1003.34
2018-10-11T12:17:47.700Z,1003.31
2018-10-11T12:18:28.297Z,1003.35
2018-10-11T12:19:08.831Z,1003.37